sensor_id;sensor_type;location;lat;lon;timestamp;temperature;humidity
14798;DHT22;7490;63.708;20.368;2023-09-12T00:01:05;17.10;99.90
14798;DHT22;7490;63.708;20.368;2023-09-12T00:03:32;17.00;99.90
14798;DHT22;7490;63.708;20.368;2023-09-12T00:05:59;17.10;99.90
14798;DHT22;7490;63.708;20.368;2023-09-12T00:08:26;17.00;99.90
14798;DHT22;7490;63.708;20.368;2023-09-12T00:11:08;17.10;99.90
14798;DHT22;7490;63.708;20.368;2023-09-12T00:13:41;17.10;99.90
14798;DHT22;7490;63.708;20.368;2023-09-12T00:16:07;17.00;99.90
14798;DHT22;7490;63.708;20.368;2023-09-12T00:18:40;17.00;99.90
14798;DHT22;7490;63.708;20.368;2023-09-12T00:21:06;17.00;99.90
14798;DHT22;7490;63.708;20.368;2023-09-12T00:23:31;17.00;99.90
14798;DHT22;7490;63.708;20.368;2023-09-12T00:25:57;17.00;99.90
14798;DHT22;7490;63.708;20.368;2023-09-12T00:28:23;17.00;99.90
14798;DHT22;7490;63.708;20.368;2023-09-12T00:30:49;17.00;99.90
14798;DHT22;7490;63.708;20.368;2023-09-12T00:33:14;17.00;99.90
14798;DHT22;7490;63.708;20.368;2023-09-12T00:35:40;17.00;99.90
14798;DHT22;7490;63.708;20.368;2023-09-12T00:38:09;16.90;99.90
14798;DHT22;7490;63.708;20.368;2023-09-12T00:40:34;17.00;99.90
14798;DHT22;7490;63.708;20.368;2023-09-12T00:43:00;17.00;99.90
14798;DHT22;7490;63.708;20.368;2023-09-12T00:45:26;17.00;99.90
14798;DHT22;7490;63.708;20.368;2023-09-12T00:47:52;17.00;99.90
14798;DHT22;7490;63.708;20.368;2023-09-12T00:50:20;17.00;99.90
14798;DHT22;7490;63.708;20.368;2023-09-12T00:52:49;17.00;99.90
14798;DHT22;7490;63.708;20.368;2023-09-12T00:55:15;17.00;99.90
14798;DHT22;7490;63.708;20.368;2023-09-12T00:57:41;17.00;99.90
14798;DHT22;7490;63.708;20.368;2023-09-12T01:00:07;17.00;99.90
14798;DHT22;7490;63.708;20.368;2023-09-12T01:02:43;17.00;99.90
14798;DHT22;7490;63.708;20.368;2023-09-12T01:05:11;17.00;99.90
14798;DHT22;7490;63.708;20.368;2023-09-12T01:07:37;17.00;99.90
14798;DHT22;7490;63.708;20.368;2023-09-12T01:10:07;17.00;99.90
14798;DHT22;7490;63.708;20.368;2023-09-12T01:12:33;17.00;99.90
14798;DHT22;7490;63.708;20.368;2023-09-12T01:14:59;17.00;99.90
14798;DHT22;7490;63.708;20.368;2023-09-12T01:17:25;17.00;99.90
14798;DHT22;7490;63.708;20.368;2023-09-12T01:19:51;17.00;99.90
14798;DHT22;7490;63.708;20.368;2023-09-12T01:22:40;17.00;99.90
14798;DHT22;7490;63.708;20.368;2023-09-12T01:28:09;17.10;99.90
14798;DHT22;7490;63.708;20.368;2023-09-12T01:30:36;17.10;99.90
14798;DHT22;7490;63.708;20.368;2023-09-12T01:33:03;17.20;99.90
14798;DHT22;7490;63.708;20.368;2023-09-12T01:35:29;17.20;99.90
14798;DHT22;7490;63.708;20.368;2023-09-12T01:37:54;17.20;99.90
14798;DHT22;7490;63.708;20.368;2023-09-12T01:40:37;17.20;99.90
14798;DHT22;7490;63.708;20.368;2023-09-12T01:43:04;17.30;99.90
14798;DHT22;7490;63.708;20.368;2023-09-12T01:45:31;17.20;99.90
14798;DHT22;7490;63.708;20.368;2023-09-12T01:47:58;17.20;99.90
14798;DHT22;7490;63.708;20.368;2023-09-12T01:50:25;17.20;99.90
14798;DHT22;7490;63.708;20.368;2023-09-12T01:52:53;17.30;99.90
14798;DHT22;7490;63.708;20.368;2023-09-12T01:55:19;17.20;99.90
14798;DHT22;7490;63.708;20.368;2023-09-12T01:57:45;17.20;99.90
14798;DHT22;7490;63.708;20.368;2023-09-12T02:00:13;17.20;99.90
14798;DHT22;7490;63.708;20.368;2023-09-12T02:02:38;17.20;99.90
14798;DHT22;7490;63.708;20.368;2023-09-12T02:05:19;17.10;99.90
14798;DHT22;7490;63.708;20.368;2023-09-12T02:07:45;17.10;99.90
14798;DHT22;7490;63.708;20.368;2023-09-12T02:10:12;17.00;99.90
14798;DHT22;7490;63.708;20.368;2023-09-12T02:12:38;17.00;99.90
14798;DHT22;7490;63.708;20.368;2023-09-12T02:15:04;16.90;99.90
14798;DHT22;7490;63.708;20.368;2023-09-12T02:17:30;16.90;99.90
14798;DHT22;7490;63.708;20.368;2023-09-12T02:19:55;17.00;99.90
14798;DHT22;7490;63.708;20.368;2023-09-12T02:22:21;17.00;99.90
14798;DHT22;7490;63.708;20.368;2023-09-12T02:24:47;17.00;99.90
14798;DHT22;7490;63.708;20.368;2023-09-12T02:27:13;17.00;99.90
14798;DHT22;7490;63.708;20.368;2023-09-12T02:29:39;17.00;99.90
14798;DHT22;7490;63.708;20.368;2023-09-12T02:32:05;17.00;99.90
14798;DHT22;7490;63.708;20.368;2023-09-12T02:34:31;17.10;99.90
14798;DHT22;7490;63.708;20.368;2023-09-12T02:36:57;17.10;99.90
14798;DHT22;7490;63.708;20.368;2023-09-12T02:39:22;17.10;99.90
14798;DHT22;7490;63.708;20.368;2023-09-12T02:41:48;17.00;99.90
14798;DHT22;7490;63.708;20.368;2023-09-12T02:44:14;17.00;99.90
14798;DHT22;7490;63.708;20.368;2023-09-12T02:46:39;16.90;99.90
14798;DHT22;7490;63.708;20.368;2023-09-12T02:49:05;16.90;99.90
14798;DHT22;7490;63.708;20.368;2023-09-12T02:51:31;16.90;99.90
14798;DHT22;7490;63.708;20.368;2023-09-12T02:53:57;16.90;99.90
14798;DHT22;7490;63.708;20.368;2023-09-12T02:56:22;16.90;99.90
14798;DHT22;7490;63.708;20.368;2023-09-12T02:58:49;16.90;99.90
14798;DHT22;7490;63.708;20.368;2023-09-12T03:01:16;17.00;99.90
14798;DHT22;7490;63.708;20.368;2023-09-12T03:03:41;17.00;99.90
14798;DHT22;7490;63.708;20.368;2023-09-12T03:06:07;17.10;99.90
14798;DHT22;7490;63.708;20.368;2023-09-12T03:08:33;17.10;99.90
14798;DHT22;7490;63.708;20.368;2023-09-12T03:10:58;17.10;99.90
14798;DHT22;7490;63.708;20.368;2023-09-12T03:13:26;17.20;99.90
14798;DHT22;7490;63.708;20.368;2023-09-12T03:15:52;17.20;99.90
14798;DHT22;7490;63.708;20.368;2023-09-12T03:18:18;17.20;99.90
14798;DHT22;7490;63.708;20.368;2023-09-12T03:20:43;17.20;99.90
14798;DHT22;7490;63.708;20.368;2023-09-12T03:23:09;17.30;99.90
14798;DHT22;7490;63.708;20.368;2023-09-12T03:25:38;17.20;99.90
14798;DHT22;7490;63.708;20.368;2023-09-12T03:28:08;17.30;99.90
14798;DHT22;7490;63.708;20.368;2023-09-12T03:30:35;17.30;99.90
14798;DHT22;7490;63.708;20.368;2023-09-12T03:33:01;17.30;99.90
14798;DHT22;7490;63.708;20.368;2023-09-12T03:35:28;17.30;99.90
14798;DHT22;7490;63.708;20.368;2023-09-12T03:37:54;17.30;99.90
14798;DHT22;7490;63.708;20.368;2023-09-12T03:40:20;17.30;99.90
14798;DHT22;7490;63.708;20.368;2023-09-12T03:42:45;17.30;99.90
14798;DHT22;7490;63.708;20.368;2023-09-12T03:45:11;17.30;99.90
14798;DHT22;7490;63.708;20.368;2023-09-12T03:47:37;17.30;99.90
14798;DHT22;7490;63.708;20.368;2023-09-12T03:50:03;17.30;99.90
14798;DHT22;7490;63.708;20.368;2023-09-12T03:52:29;17.30;99.90
14798;DHT22;7490;63.708;20.368;2023-09-12T03:54:55;17.30;99.90
14798;DHT22;7490;63.708;20.368;2023-09-12T03:57:20;17.40;99.90
14798;DHT22;7490;63.708;20.368;2023-09-12T03:59:46;17.40;99.90
14798;DHT22;7490;63.708;20.368;2023-09-12T04:02:12;17.40;99.90
14798;DHT22;7490;63.708;20.368;2023-09-12T04:04:38;17.40;99.90
14798;DHT22;7490;63.708;20.368;2023-09-12T04:07:04;17.40;99.90
14798;DHT22;7490;63.708;20.368;2023-09-12T04:09:30;17.40;99.90
14798;DHT22;7490;63.708;20.368;2023-09-12T04:11:56;17.40;99.90
14798;DHT22;7490;63.708;20.368;2023-09-12T04:14:21;17.40;99.90
14798;DHT22;7490;63.708;20.368;2023-09-12T04:16:47;17.40;99.90
14798;DHT22;7490;63.708;20.368;2023-09-12T04:19:14;17.40;99.90
14798;DHT22;7490;63.708;20.368;2023-09-12T04:21:40;17.40;99.90
14798;DHT22;7490;63.708;20.368;2023-09-12T04:24:06;17.40;99.90
14798;DHT22;7490;63.708;20.368;2023-09-12T04:26:32;17.40;99.90
14798;DHT22;7490;63.708;20.368;2023-09-12T04:28:58;17.30;99.90
14798;DHT22;7490;63.708;20.368;2023-09-12T04:31:23;17.30;99.90
14798;DHT22;7490;63.708;20.368;2023-09-12T04:33:53;17.30;99.90
14798;DHT22;7490;63.708;20.368;2023-09-12T04:36:19;17.40;99.90
14798;DHT22;7490;63.708;20.368;2023-09-12T04:38:45;17.40;99.90
14798;DHT22;7490;63.708;20.368;2023-09-12T04:41:12;17.30;99.90
14798;DHT22;7490;63.708;20.368;2023-09-12T04:43:41;17.30;99.90
14798;DHT22;7490;63.708;20.368;2023-09-12T04:46:07;17.30;99.90
14798;DHT22;7490;63.708;20.368;2023-09-12T04:48:32;17.30;99.90
14798;DHT22;7490;63.708;20.368;2023-09-12T04:50:58;17.30;99.90
14798;DHT22;7490;63.708;20.368;2023-09-12T04:53:24;17.30;99.90
14798;DHT22;7490;63.708;20.368;2023-09-12T04:55:52;17.30;99.90
14798;DHT22;7490;63.708;20.368;2023-09-12T04:58:18;17.30;99.90
14798;DHT22;7490;63.708;20.368;2023-09-12T05:00:43;17.30;99.90
14798;DHT22;7490;63.708;20.368;2023-09-12T05:03:09;17.30;99.90
14798;DHT22;7490;63.708;20.368;2023-09-12T05:05:35;17.30;99.90
14798;DHT22;7490;63.708;20.368;2023-09-12T05:08:04;17.30;99.90
14798;DHT22;7490;63.708;20.368;2023-09-12T05:10:30;17.30;99.90
14798;DHT22;7490;63.708;20.368;2023-09-12T05:12:56;17.30;99.90
14798;DHT22;7490;63.708;20.368;2023-09-12T05:15:21;17.30;99.90
14798;DHT22;7490;63.708;20.368;2023-09-12T05:17:47;17.30;99.90
14798;DHT22;7490;63.708;20.368;2023-09-12T05:20:13;17.30;99.90
14798;DHT22;7490;63.708;20.368;2023-09-12T05:22:38;17.30;99.90
14798;DHT22;7490;63.708;20.368;2023-09-12T05:25:04;17.30;99.90
14798;DHT22;7490;63.708;20.368;2023-09-12T05:27:30;17.40;99.90
14798;DHT22;7490;63.708;20.368;2023-09-12T05:29:55;17.30;99.90
14798;DHT22;7490;63.708;20.368;2023-09-12T05:32:21;17.40;99.90
14798;DHT22;7490;63.708;20.368;2023-09-12T05:34:47;17.40;99.90
14798;DHT22;7490;63.708;20.368;2023-09-12T05:37:15;17.40;99.90
14798;DHT22;7490;63.708;20.368;2023-09-12T05:39:41;17.40;99.90
14798;DHT22;7490;63.708;20.368;2023-09-12T05:42:07;17.40;99.90
14798;DHT22;7490;63.708;20.368;2023-09-12T05:44:33;17.40;99.90
14798;DHT22;7490;63.708;20.368;2023-09-12T05:46:58;17.40;99.90
14798;DHT22;7490;63.708;20.368;2023-09-12T05:49:24;17.40;99.90
14798;DHT22;7490;63.708;20.368;2023-09-12T05:51:49;17.40;99.90
14798;DHT22;7490;63.708;20.368;2023-09-12T05:54:16;17.40;99.90
14798;DHT22;7490;63.708;20.368;2023-09-12T05:56:41;17.40;99.90
14798;DHT22;7490;63.708;20.368;2023-09-12T05:59:07;17.40;99.90
14798;DHT22;7490;63.708;20.368;2023-09-12T06:01:33;17.40;99.90
14798;DHT22;7490;63.708;20.368;2023-09-12T06:03:58;17.40;99.90
14798;DHT22;7490;63.708;20.368;2023-09-12T06:06:24;17.40;99.90
14798;DHT22;7490;63.708;20.368;2023-09-12T06:08:49;17.40;99.90
14798;DHT22;7490;63.708;20.368;2023-09-12T06:11:15;17.40;99.90
14798;DHT22;7490;63.708;20.368;2023-09-12T06:13:41;17.40;99.90
14798;DHT22;7490;63.708;20.368;2023-09-12T06:16:06;17.40;99.90
14798;DHT22;7490;63.708;20.368;2023-09-12T06:18:33;17.40;99.90
14798;DHT22;7490;63.708;20.368;2023-09-12T06:21:00;17.40;99.90
14798;DHT22;7490;63.708;20.368;2023-09-12T06:23:29;17.40;99.90
14798;DHT22;7490;63.708;20.368;2023-09-12T06:25:55;17.40;99.90
14798;DHT22;7490;63.708;20.368;2023-09-12T06:28:29;17.50;99.90
14798;DHT22;7490;63.708;20.368;2023-09-12T06:30:55;17.50;99.90
14798;DHT22;7490;63.708;20.368;2023-09-12T06:33:22;17.50;99.90
14798;DHT22;7490;63.708;20.368;2023-09-12T06:35:51;17.50;99.90
14798;DHT22;7490;63.708;20.368;2023-09-12T06:38:19;17.50;99.90
14798;DHT22;7490;63.708;20.368;2023-09-12T06:40:45;17.50;99.90
14798;DHT22;7490;63.708;20.368;2023-09-12T06:43:12;17.50;99.90
14798;DHT22;7490;63.708;20.368;2023-09-12T06:45:40;17.50;99.90
14798;DHT22;7490;63.708;20.368;2023-09-12T06:48:06;17.50;99.90
14798;DHT22;7490;63.708;20.368;2023-09-12T06:50:32;17.50;99.90
14798;DHT22;7490;63.708;20.368;2023-09-12T06:52:58;17.50;99.90
14798;DHT22;7490;63.708;20.368;2023-09-12T06:55:24;17.50;99.90
14798;DHT22;7490;63.708;20.368;2023-09-12T06:57:50;17.50;99.90
14798;DHT22;7490;63.708;20.368;2023-09-12T07:00:15;17.50;99.90
14798;DHT22;7490;63.708;20.368;2023-09-12T07:02:42;17.50;99.90
14798;DHT22;7490;63.708;20.368;2023-09-12T07:05:08;17.50;99.90
14798;DHT22;7490;63.708;20.368;2023-09-12T07:07:34;17.50;99.90
14798;DHT22;7490;63.708;20.368;2023-09-12T07:10:00;17.40;99.90
14798;DHT22;7490;63.708;20.368;2023-09-12T07:12:28;17.40;99.90
14798;DHT22;7490;63.708;20.368;2023-09-12T07:14:54;17.40;99.90
14798;DHT22;7490;63.708;20.368;2023-09-12T07:17:21;17.40;99.90
14798;DHT22;7490;63.708;20.368;2023-09-12T07:19:47;17.40;99.90
14798;DHT22;7490;63.708;20.368;2023-09-12T07:22:12;17.40;99.90
14798;DHT22;7490;63.708;20.368;2023-09-12T07:24:38;17.40;99.90
14798;DHT22;7490;63.708;20.368;2023-09-12T07:27:04;17.40;99.90
14798;DHT22;7490;63.708;20.368;2023-09-12T07:29:31;17.40;99.90
14798;DHT22;7490;63.708;20.368;2023-09-12T07:31:56;17.40;99.90
14798;DHT22;7490;63.708;20.368;2023-09-12T07:34:23;17.40;99.90
14798;DHT22;7490;63.708;20.368;2023-09-12T07:36:49;17.40;99.90
14798;DHT22;7490;63.708;20.368;2023-09-12T07:39:16;17.40;99.90
14798;DHT22;7490;63.708;20.368;2023-09-12T07:41:42;17.40;99.90
14798;DHT22;7490;63.708;20.368;2023-09-12T07:44:08;17.50;99.90
14798;DHT22;7490;63.708;20.368;2023-09-12T07:46:39;17.50;99.90
14798;DHT22;7490;63.708;20.368;2023-09-12T07:49:04;17.50;99.90
14798;DHT22;7490;63.708;20.368;2023-09-12T07:51:30;17.60;99.90
14798;DHT22;7490;63.708;20.368;2023-09-12T07:53:56;17.60;99.90
14798;DHT22;7490;63.708;20.368;2023-09-12T07:56:21;17.70;99.90
14798;DHT22;7490;63.708;20.368;2023-09-12T07:58:48;17.70;99.90
14798;DHT22;7490;63.708;20.368;2023-09-12T08:01:14;17.70;99.90
14798;DHT22;7490;63.708;20.368;2023-09-12T08:03:42;17.70;99.90
14798;DHT22;7490;63.708;20.368;2023-09-12T08:06:08;17.60;99.90
14798;DHT22;7490;63.708;20.368;2023-09-12T08:08:34;17.60;99.90
14798;DHT22;7490;63.708;20.368;2023-09-12T08:11:00;17.60;99.90
14798;DHT22;7490;63.708;20.368;2023-09-12T08:13:27;17.60;99.90
14798;DHT22;7490;63.708;20.368;2023-09-12T08:15:53;17.60;99.90
14798;DHT22;7490;63.708;20.368;2023-09-12T08:18:19;17.60;99.90
14798;DHT22;7490;63.708;20.368;2023-09-12T08:20:45;17.50;99.90
14798;DHT22;7490;63.708;20.368;2023-09-12T08:23:10;17.50;99.90
14798;DHT22;7490;63.708;20.368;2023-09-12T08:25:36;17.50;99.90
14798;DHT22;7490;63.708;20.368;2023-09-12T08:28:02;17.50;99.90
14798;DHT22;7490;63.708;20.368;2023-09-12T08:30:27;17.50;99.90
14798;DHT22;7490;63.708;20.368;2023-09-12T08:32:55;17.50;99.90
14798;DHT22;7490;63.708;20.368;2023-09-12T08:35:21;17.50;99.90
14798;DHT22;7490;63.708;20.368;2023-09-12T08:37:47;17.50;99.90
14798;DHT22;7490;63.708;20.368;2023-09-12T08:40:13;17.50;99.90
14798;DHT22;7490;63.708;20.368;2023-09-12T08:42:39;17.50;99.90
14798;DHT22;7490;63.708;20.368;2023-09-12T08:45:11;17.50;99.90
14798;DHT22;7490;63.708;20.368;2023-09-12T08:47:40;17.50;99.90
14798;DHT22;7490;63.708;20.368;2023-09-12T08:50:09;17.50;99.90
14798;DHT22;7490;63.708;20.368;2023-09-12T08:52:35;17.40;99.90
14798;DHT22;7490;63.708;20.368;2023-09-12T08:55:01;17.40;99.90
14798;DHT22;7490;63.708;20.368;2023-09-12T08:57:27;17.40;99.90
14798;DHT22;7490;63.708;20.368;2023-09-12T08:59:54;17.40;99.90
14798;DHT22;7490;63.708;20.368;2023-09-12T09:02:21;17.40;99.90
14798;DHT22;7490;63.708;20.368;2023-09-12T09:04:47;17.40;99.90
14798;DHT22;7490;63.708;20.368;2023-09-12T09:07:16;17.40;99.90
14798;DHT22;7490;63.708;20.368;2023-09-12T09:09:43;17.40;99.90
14798;DHT22;7490;63.708;20.368;2023-09-12T09:12:09;17.40;99.90
14798;DHT22;7490;63.708;20.368;2023-09-12T09:14:36;17.40;99.90
14798;DHT22;7490;63.708;20.368;2023-09-12T09:17:02;17.40;99.90
14798;DHT22;7490;63.708;20.368;2023-09-12T09:19:40;17.40;99.90
14798;DHT22;7490;63.708;20.368;2023-09-12T09:22:10;17.50;99.90
14798;DHT22;7490;63.708;20.368;2023-09-12T09:24:36;17.50;99.90
14798;DHT22;7490;63.708;20.368;2023-09-12T09:27:01;17.60;99.90
14798;DHT22;7490;63.708;20.368;2023-09-12T09:29:28;17.60;99.90
14798;DHT22;7490;63.708;20.368;2023-09-12T09:32:00;17.70;99.90
14798;DHT22;7490;63.708;20.368;2023-09-12T09:34:30;17.80;99.90
14798;DHT22;7490;63.708;20.368;2023-09-12T09:36:57;17.90;99.90
14798;DHT22;7490;63.708;20.368;2023-09-12T09:39:25;17.90;99.90
14798;DHT22;7490;63.708;20.368;2023-09-12T09:41:55;17.80;99.90
14798;DHT22;7490;63.708;20.368;2023-09-12T09:44:22;17.80;99.90
14798;DHT22;7490;63.708;20.368;2023-09-12T09:46:59;17.80;99.90
14798;DHT22;7490;63.708;20.368;2023-09-12T09:49:31;17.80;99.90
14798;DHT22;7490;63.708;20.368;2023-09-12T09:51:56;17.80;99.90
14798;DHT22;7490;63.708;20.368;2023-09-12T09:54:25;17.80;99.90
14798;DHT22;7490;63.708;20.368;2023-09-12T09:56:57;17.90;99.90
14798;DHT22;7490;63.708;20.368;2023-09-12T09:59:24;18.00;99.90
14798;DHT22;7490;63.708;20.368;2023-09-12T10:01:53;18.00;99.90
14798;DHT22;7490;63.708;20.368;2023-09-12T10:04:21;18.00;99.90
14798;DHT22;7490;63.708;20.368;2023-09-12T10:06:48;18.00;99.90
14798;DHT22;7490;63.708;20.368;2023-09-12T10:09:14;18.00;99.90
14798;DHT22;7490;63.708;20.368;2023-09-12T10:11:43;18.00;99.90
14798;DHT22;7490;63.708;20.368;2023-09-12T10:14:09;18.00;99.90
14798;DHT22;7490;63.708;20.368;2023-09-12T10:16:46;18.00;99.90
14798;DHT22;7490;63.708;20.368;2023-09-12T10:19:22;18.10;99.90
14798;DHT22;7490;63.708;20.368;2023-09-12T10:22:12;18.00;99.90
14798;DHT22;7490;63.708;20.368;2023-09-12T10:24:41;18.10;99.90
14798;DHT22;7490;63.708;20.368;2023-09-12T10:27:09;18.00;99.90
14798;DHT22;7490;63.708;20.368;2023-09-12T10:29:36;18.00;99.90
14798;DHT22;7490;63.708;20.368;2023-09-12T10:32:02;17.90;99.90
14798;DHT22;7490;63.708;20.368;2023-09-12T10:34:30;17.90;99.90
14798;DHT22;7490;63.708;20.368;2023-09-12T10:36:58;17.90;99.90
14798;DHT22;7490;63.708;20.368;2023-09-12T10:39:27;18.00;99.90
14798;DHT22;7490;63.708;20.368;2023-09-12T10:41:54;18.00;99.90
14798;DHT22;7490;63.708;20.368;2023-09-12T10:44:20;18.10;99.90
14798;DHT22;7490;63.708;20.368;2023-09-12T10:46:47;18.10;99.90
14798;DHT22;7490;63.708;20.368;2023-09-12T10:49:15;18.20;99.90
14798;DHT22;7490;63.708;20.368;2023-09-12T10:51:45;18.20;99.90
14798;DHT22;7490;63.708;20.368;2023-09-12T10:54:16;18.20;99.90
14798;DHT22;7490;63.708;20.368;2023-09-12T10:57:04;18.20;99.90
14798;DHT22;7490;63.708;20.368;2023-09-12T10:59:30;18.20;99.90
14798;DHT22;7490;63.708;20.368;2023-09-12T11:02:27;18.20;99.90
14798;DHT22;7490;63.708;20.368;2023-09-12T11:04:57;18.30;99.90
14798;DHT22;7490;63.708;20.368;2023-09-12T11:10:16;18.40;99.90
14798;DHT22;7490;63.708;20.368;2023-09-12T11:12:52;18.50;99.90
14798;DHT22;7490;63.708;20.368;2023-09-12T11:15:19;18.40;99.90
14798;DHT22;7490;63.708;20.368;2023-09-12T11:17:51;18.40;99.90
14798;DHT22;7490;63.708;20.368;2023-09-12T11:20:24;18.50;99.90
14798;DHT22;7490;63.708;20.368;2023-09-12T11:22:50;18.50;99.90
14798;DHT22;7490;63.708;20.368;2023-09-12T11:25:21;18.50;99.90
14798;DHT22;7490;63.708;20.368;2023-09-12T11:30:21;18.50;99.90
14798;DHT22;7490;63.708;20.368;2023-09-12T11:32:51;18.50;99.90
14798;DHT22;7490;63.708;20.368;2023-09-12T11:35:27;18.50;99.90
14798;DHT22;7490;63.708;20.368;2023-09-12T11:37:57;18.50;99.90
14798;DHT22;7490;63.708;20.368;2023-09-12T11:40:42;18.50;99.90
14798;DHT22;7490;63.708;20.368;2023-09-12T11:43:24;18.50;99.90
14798;DHT22;7490;63.708;20.368;2023-09-12T11:45:50;18.40;99.90
14798;DHT22;7490;63.708;20.368;2023-09-12T11:48:17;18.40;99.90
14798;DHT22;7490;63.708;20.368;2023-09-12T11:50:52;18.40;99.90
14798;DHT22;7490;63.708;20.368;2023-09-12T11:53:21;18.40;99.90
14798;DHT22;7490;63.708;20.368;2023-09-12T11:55:49;18.30;99.90
14798;DHT22;7490;63.708;20.368;2023-09-12T11:58:17;18.30;99.90
14798;DHT22;7490;63.708;20.368;2023-09-12T12:00:48;18.20;99.90
14798;DHT22;7490;63.708;20.368;2023-09-12T12:03:18;18.10;99.90
14798;DHT22;7490;63.708;20.368;2023-09-12T12:05:45;18.00;99.90
14798;DHT22;7490;63.708;20.368;2023-09-12T12:08:11;18.10;99.90
14798;DHT22;7490;63.708;20.368;2023-09-12T12:10:37;18.20;99.90
14798;DHT22;7490;63.708;20.368;2023-09-12T12:13:11;18.40;99.90
14798;DHT22;7490;63.708;20.368;2023-09-12T12:15:37;18.40;99.90
14798;DHT22;7490;63.708;20.368;2023-09-12T12:18:03;18.40;99.90
14798;DHT22;7490;63.708;20.368;2023-09-12T12:20:28;18.40;99.90
14798;DHT22;7490;63.708;20.368;2023-09-12T12:22:55;18.50;99.90
14798;DHT22;7490;63.708;20.368;2023-09-12T12:25:21;18.50;99.90
14798;DHT22;7490;63.708;20.368;2023-09-12T12:27:47;18.50;99.90
14798;DHT22;7490;63.708;20.368;2023-09-12T12:30:13;18.40;99.90
14798;DHT22;7490;63.708;20.368;2023-09-12T12:32:43;18.40;99.90
14798;DHT22;7490;63.708;20.368;2023-09-12T12:35:21;18.40;99.90
14798;DHT22;7490;63.708;20.368;2023-09-12T12:37:51;18.40;99.90
14798;DHT22;7490;63.708;20.368;2023-09-12T12:40:17;18.30;99.90
14798;DHT22;7490;63.708;20.368;2023-09-12T12:42:44;18.30;99.90
14798;DHT22;7490;63.708;20.368;2023-09-12T12:45:16;18.30;99.90
14798;DHT22;7490;63.708;20.368;2023-09-12T12:47:42;18.20;99.90
14798;DHT22;7490;63.708;20.368;2023-09-12T12:50:13;18.10;99.90
14798;DHT22;7490;63.708;20.368;2023-09-12T12:52:41;18.00;99.90
14798;DHT22;7490;63.708;20.368;2023-09-12T12:55:10;17.90;99.90
14798;DHT22;7490;63.708;20.368;2023-09-12T12:57:40;17.80;99.90
14798;DHT22;7490;63.708;20.368;2023-09-12T13:00:16;17.80;99.90
14798;DHT22;7490;63.708;20.368;2023-09-12T13:02:43;17.80;99.90
14798;DHT22;7490;63.708;20.368;2023-09-12T13:05:28;17.70;99.90
14798;DHT22;7490;63.708;20.368;2023-09-12T13:07:54;17.60;99.90
14798;DHT22;7490;63.708;20.368;2023-09-12T13:10:21;17.60;99.90
14798;DHT22;7490;63.708;20.368;2023-09-12T13:12:48;17.60;99.90
14798;DHT22;7490;63.708;20.368;2023-09-12T13:15:15;17.60;99.90
14798;DHT22;7490;63.708;20.368;2023-09-12T13:17:41;17.60;99.90
14798;DHT22;7490;63.708;20.368;2023-09-12T13:20:07;17.60;99.90
14798;DHT22;7490;63.708;20.368;2023-09-12T13:22:37;17.50;99.90
14798;DHT22;7490;63.708;20.368;2023-09-12T13:25:04;17.50;99.90
14798;DHT22;7490;63.708;20.368;2023-09-12T13:27:29;17.40;99.90
14798;DHT22;7490;63.708;20.368;2023-09-12T13:29:55;17.40;99.90
14798;DHT22;7490;63.708;20.368;2023-09-12T13:32:20;17.40;99.90
14798;DHT22;7490;63.708;20.368;2023-09-12T13:34:46;17.40;99.90
14798;DHT22;7490;63.708;20.368;2023-09-12T13:37:12;17.40;99.90
14798;DHT22;7490;63.708;20.368;2023-09-12T13:39:37;17.40;99.90
14798;DHT22;7490;63.708;20.368;2023-09-12T13:42:05;17.40;99.90
14798;DHT22;7490;63.708;20.368;2023-09-12T13:44:33;17.40;99.90
14798;DHT22;7490;63.708;20.368;2023-09-12T13:46:59;17.40;99.90
14798;DHT22;7490;63.708;20.368;2023-09-12T13:49:25;17.40;99.90
14798;DHT22;7490;63.708;20.368;2023-09-12T13:51:50;17.40;99.90
14798;DHT22;7490;63.708;20.368;2023-09-12T13:54:16;17.40;99.90
14798;DHT22;7490;63.708;20.368;2023-09-12T13:56:42;17.50;99.90
14798;DHT22;7490;63.708;20.368;2023-09-12T13:59:07;17.50;99.90
14798;DHT22;7490;63.708;20.368;2023-09-12T14:01:33;17.50;99.90
14798;DHT22;7490;63.708;20.368;2023-09-12T14:03:59;17.50;99.90
14798;DHT22;7490;63.708;20.368;2023-09-12T14:06:25;17.50;99.90
14798;DHT22;7490;63.708;20.368;2023-09-12T14:08:52;17.50;99.90
14798;DHT22;7490;63.708;20.368;2023-09-12T14:11:17;17.50;99.90
14798;DHT22;7490;63.708;20.368;2023-09-12T14:13:43;17.40;99.90
14798;DHT22;7490;63.708;20.368;2023-09-12T14:16:09;17.40;99.90
14798;DHT22;7490;63.708;20.368;2023-09-12T14:18:34;17.30;99.90
14798;DHT22;7490;63.708;20.368;2023-09-12T14:21:00;17.30;99.90
14798;DHT22;7490;63.708;20.368;2023-09-12T14:23:25;17.20;99.90
14798;DHT22;7490;63.708;20.368;2023-09-12T14:25:51;17.10;99.90
14798;DHT22;7490;63.708;20.368;2023-09-12T14:28:17;17.00;99.90
14798;DHT22;7490;63.708;20.368;2023-09-12T14:30:43;17.00;99.90
14798;DHT22;7490;63.708;20.368;2023-09-12T14:33:10;17.00;99.90
14798;DHT22;7490;63.708;20.368;2023-09-12T14:35:37;16.90;99.90
14798;DHT22;7490;63.708;20.368;2023-09-12T14:38:03;16.90;99.90
14798;DHT22;7490;63.708;20.368;2023-09-12T14:40:29;16.80;99.90
14798;DHT22;7490;63.708;20.368;2023-09-12T14:42:55;16.80;99.90
14798;DHT22;7490;63.708;20.368;2023-09-12T14:45:21;16.70;99.90
14798;DHT22;7490;63.708;20.368;2023-09-12T14:47:47;16.70;99.90
14798;DHT22;7490;63.708;20.368;2023-09-12T14:50:12;16.70;99.90
14798;DHT22;7490;63.708;20.368;2023-09-12T14:52:38;16.60;99.90
14798;DHT22;7490;63.708;20.368;2023-09-12T14:55:05;16.50;99.90
14798;DHT22;7490;63.708;20.368;2023-09-12T14:57:34;16.50;99.90
14798;DHT22;7490;63.708;20.368;2023-09-12T14:59:59;16.40;99.90
14798;DHT22;7490;63.708;20.368;2023-09-12T15:02:26;16.30;99.90
14798;DHT22;7490;63.708;20.368;2023-09-12T15:05:01;16.30;99.90
14798;DHT22;7490;63.708;20.368;2023-09-12T15:07:29;16.20;99.90
14798;DHT22;7490;63.708;20.368;2023-09-12T15:09:55;16.10;99.90
14798;DHT22;7490;63.708;20.368;2023-09-12T15:12:21;16.10;99.90
14798;DHT22;7490;63.708;20.368;2023-09-12T15:14:46;15.90;99.90
14798;DHT22;7490;63.708;20.368;2023-09-12T15:17:12;15.90;99.90
14798;DHT22;7490;63.708;20.368;2023-09-12T15:19:38;15.90;99.90
14798;DHT22;7490;63.708;20.368;2023-09-12T15:22:03;15.80;99.90
14798;DHT22;7490;63.708;20.368;2023-09-12T15:24:29;15.70;99.90
14798;DHT22;7490;63.708;20.368;2023-09-12T15:26:55;15.70;99.90
14798;DHT22;7490;63.708;20.368;2023-09-12T15:29:21;15.60;99.90
14798;DHT22;7490;63.708;20.368;2023-09-12T15:31:46;15.50;99.90
14798;DHT22;7490;63.708;20.368;2023-09-12T15:34:12;15.50;99.90
14798;DHT22;7490;63.708;20.368;2023-09-12T15:36:45;15.40;99.90
14798;DHT22;7490;63.708;20.368;2023-09-12T15:39:11;15.50;99.90